Latest Weather Observations for Mangrove Mountain

IDN60901

Issued at 8:41 pm EST Thursday 24 August 2017 (issued every 10 minutes, with the page automatically refreshed every 10 minutes)

About weather observations | Map of Sydney area stations | Latest observations for Sydney area | Other Formats
Station Details ID: 061375 Name: MANGROVE MOUNTAIN AWS Lat: -33.29 Lon: 151.21 Height: 305.0 m
Data from the previous 72 hours. | See also: Recent months at Mangrove Mountain
Date/Time
EST
Temp
°C
App
Temp
°C
Dew
Point
°C
Rel
Hum
%
Delta-T
°C
Wind Press
QNH
hPa
Press
MSL
hPa
Rain since
9am
mm
Dir  Spd
km/h
Gust
km/h
Spd
kts
Gust
kts
24/08:30pm 10.8 8.5 5.6 70 2.4 S 7 15 4 8 - - 0.0
24/08:00pm 10.8 8.6 6.2 73 2.2 S 7 15 4 8 - - 0.0
24/07:30pm 10.9 8.8 6.8 76 2.0 S 7 13 4 7 - - 0.0
24/07:00pm 10.7 8.7 7.0 78 1.8 S 7 9 4 5 - - 0.0
24/06:30pm 11.1 9.0 6.8 75 2.1 S 7 13 4 7 - - 0.0
24/06:00pm 11.6 8.8 6.9 73 2.3 SSE 11 20 6 11 - - 0.0
24/05:30pm 11.8 8.9 6.7 71 2.5 SSE 11 20 6 11 - - 0.0
24/05:00pm 12.6 9.7 6.6 67 2.9 SSE 11 19 6 10 - - 0.0
24/04:30pm 12.8 9.5 6.2 64 3.2 SSE 13 20 7 11 - - 0.0
24/04:00pm 13.3 10.0 6.2 62 3.4 SE 13 20 7 11 - - 0.0
24/03:30pm 14.4 10.7 6.5 59 3.9 SSE 15 20 8 11 - - 0.0
24/03:00pm 14.2 11.5 7.3 63 3.4 SSE 11 20 6 11 - - 0.0
24/02:30pm 14.0 10.5 7.1 63 3.4 SE 15 24 8 13 - - 0.0
24/02:00pm 17.1 14.3 3.1 39 6.5 SSE 7 17 4 9 - - 0.0
24/01:30pm 16.4 13.8 4.4 45 5.7 WSW 7 15 4 8 - - 0.0
24/01:00pm 15.1 12.4 3.6 46 5.3 S 7 20 4 11 - - 0.0
24/12:30pm 16.0 13.5 4.7 47 5.4 S 7 17 4 9 - - 0.0
24/12:00pm 16.4 13.4 4.1 44 5.8 WSW 9 17 5 9 - - 0.0
24/11:30am 15.7 12.6 3.5 44 5.7 WSW 9 17 5 9 - - 0.0
24/11:00am 15.2 12.2 4.3 48 5.1 WSW 9 19 5 10 - - 0.0
24/10:30am 14.6 11.7 4.9 52 4.6 SW 9 19 5 10 - - 0.0
24/10:00am 13.4 9.2 4.0 53 4.3 WSW 15 24 8 13 - - 0.0
24/09:30am 12.7 9.6 5.6 62 3.4 W 11 20 6 11 - - 0.0
24/09:00am 11.8 9.6 6.3 69 2.6 W 7 15 4 8 - - 0.0
24/08:30am 11.4 9.8 7.9 79 1.7 WNW 6 7 3 4 - - 0.0
24/08:00am 9.6 8.1 8.5 93 0.5 WNW 6 9 3 5 - - 0.0
24/07:30am 7.7 6.0 7.7 100 0.0 WNW 6 7 3 4 - - 0.0
24/07:00am 5.2 3.4 5.2 100 0.0 WNW 4 7 2 4 - - 0.0
24/06:30am 4.0 1.9 4.0 100 0.0 WNW 4 6 2 3 - - 0.0
24/06:00am 4.7 2.8 4.7 100 0.0 WNW 4 6 2 3 - - 0.0
24/05:30am 5.2 3.4 5.2 100 0.0 WNW 4 7 2 4 - - 0.0
24/05:00am 4.8 2.9 4.7 99 0.0 WNW 4 6 2 3 - - 0.0
24/04:30am 5.0 3.5 4.9 99 0.0 WNW 2 4 1 2 - - 0.0
24/04:00am 5.7 4.7 5.6 99 0.0 CALM 0 2 0 1 - - 0.0
24/03:30am 6.5 5.7 6.4 99 0.0 CALM 0 2 0 1 - - 0.0
24/03:00am 7.2 6.2 7.2 100 0.0 WSW 2 4 1 2 - - 0.0
24/02:30am 8.0 7.2 8.0 100 0.0 WSW 2 4 1 2 - - 0.0
24/02:00am 8.4 7.3 8.4 100 0.0 W 4 6 2 3 - - 0.0
24/01:30am 8.9 7.5 8.9 100 0.0 WNW 6 9 3 5 - - 0.0
24/01:00am 8.8 7.8 8.8 100 0.0 NW 4 6 2 3 - - 0.0
24/12:30am 9.0 8.0 9.0 100 0.0 NW 4 6 2 3 - - 0.0
24/12:00am 9.9 8.8 9.9 100 0.0 WNW 6 7 3 4 - - 0.0
 
Date/Time
EST
Temp
°C
App
Temp
°C
Dew
Point
°C
Rel
Hum
%
Delta-T
°C
Wind Press
QNH
hPa
Press
MSL
hPa
Rain since
9am
mm
Dir  Spd
km/h
Gust
km/h
Spd
kts
Gust
kts
23/11:30pm 9.4 8.5 9.4 100 0.0 NW 4 6 2 3 - - 0.0
23/11:00pm 10.0 8.9 10.0 100 0.0 W 6 7 3 4 - - 0.0
23/10:30pm 9.5 9.0 9.5 100 0.0 WSW 2 4 1 2 - - 0.0
23/10:00pm 8.9 8.6 8.8 99 0.0 CALM 0 0 0 0 - - 0.0
23/09:30pm 9.7 9.6 9.6 99 0.1 CALM 0 2 0 1 - - 0.0
23/09:00pm 9.5 9.3 9.0 97 0.2 CALM 0 0 0 0 - - 0.0
23/08:30pm 9.7 9.5 8.9 95 0.4 CALM 0 0 0 0 - - 0.0
23/08:00pm 11.1 10.5 10.3 95 0.4 SSE 4 6 2 3 - - 0.0
23/07:30pm 10.9 10.1 9.5 91 0.7 S 4 6 2 3 - - 0.0
23/07:00pm 12.1 11.4 10.0 87 1.1 ESE 4 9 2 5 - - 0.0
23/06:30pm 13.4 12.6 10.9 85 1.3 ESE 6 9 3 5 - - 0.0
23/06:00pm 14.7 13.5 11.7 82 1.6 E 9 11 5 6 - - 0.0
23/05:30pm 15.4 14.4 11.0 75 2.4 E 7 15 4 8 - - 0.0
23/05:00pm 16.7 15.3 10.8 68 3.2 E 9 15 5 8 - - 0.0
23/04:30pm 18.3 16.9 10.9 62 4.1 NE 9 15 5 8 - - 0.0
23/04:00pm 18.8 16.9 10.4 58 4.6 ENE 11 17 6 9 - - 0.0
23/03:30pm 19.8 18.1 10.0 53 5.3 NE 9 15 5 8 - - 0.0
23/03:00pm 21.4 18.6 3.1 30 8.8 NW 7 11 4 6 - - 0.0
23/02:30pm 21.4 19.0 4.5 33 8.4 N 6 11 3 6 - - 0.0
23/02:00pm 21.6 19.8 5.5 35 8.1 NNW 4 11 2 6 - - 0.0
23/01:30pm 21.0 18.9 5.8 37 7.7 NW 6 11 3 6 - - 0.0
23/01:00pm 20.9 18.8 6.8 40 7.3 WNW 7 15 4 8 - - 0.0
23/12:30pm 19.5 18.0 6.9 44 6.5 NNW 4 9 2 5 - - 0.0
23/12:00pm 18.6 17.0 6.4 45 6.2 NW 4 7 2 4 - - 0.0
23/11:30am 17.8 16.4 7.2 50 5.4 N 4 9 2 5 - - 0.0
23/11:00am 18.0 17.2 10.9 63 3.9 WNW 6 7 3 4 - - 0.0
23/10:30am 17.1 16.2 10.5 65 3.6 NW 6 7 3 4 - - 0.0
23/10:00am 15.8 15.0 9.7 67 3.2 NNW 4 6 2 3 - - 0.0
23/09:30am 14.9 14.4 9.5 70 2.8 NW 2 6 1 3 - - 0.0
23/09:00am 12.9 11.9 9.0 77 2.0 NW 4 6 2 3 - - 0.0
23/08:30am 11.9 10.8 8.6 80 1.7 NW 4 6 2 3 - - 0.0
23/08:00am 10.8 10.7 9.6 92 0.6 CALM 0 2 0 1 - - 0.0
23/07:30am 8.9 8.3 8.9 100 0.0 WNW 2 4 1 2 - - 0.0
23/07:00am 6.1 5.2 6.1 100 0.0 CALM 0 0 0 0 - - 0.0
23/06:30am 5.3 4.2 5.3 100 0.0 CALM 0 0 0 0 - - 0.0
23/06:00am 4.6 3.4 4.5 99 0.0 CALM 0 0 0 0 - - 0.0
23/05:30am 4.8 3.6 4.7 99 0.0 CALM 0 0 0 0 - - 0.0
23/05:00am 5.0 3.9 4.9 99 0.0 CALM 0 0 0 0 - - 0.0
23/04:30am 5.0 3.8 4.6 97 0.2 CALM 0 0 0 0 - - 0.0
23/04:00am 5.4 4.3 5.0 97 0.2 CALM 0 0 0 0 - - 0.0
23/03:30am 5.5 4.4 4.9 96 0.3 CALM 0 0 0 0 - - 0.0
23/03:00am 6.0 5.0 5.7 98 0.1 CALM 0 0 0 0 - - 0.0
23/02:30am 5.5 4.3 4.6 94 0.4 CALM 0 0 0 0 - - 0.0
23/02:00am 5.9 4.7 4.5 91 0.6 CALM 0 0 0 0 - - 0.0
23/01:30am 6.7 5.5 4.7 87 0.9 CALM 0 4 0 2 - - 0.0
23/01:00am 8.1 6.4 5.9 86 1.0 N 4 4 2 2 - - 0.0
23/12:30am 10.0 8.5 6.7 80 1.6 NNE 4 6 2 3 - - 0.0
23/12:00am 10.9 9.0 7.4 79 1.7 NNE 7 11 4 6 - - 0.0
 
Date/Time
EST
Temp
°C
App
Temp
°C
Dew
Point
°C
Rel
Hum
%
Delta-T
°C
Wind Press
QNH
hPa
Press
MSL
hPa
Rain since
9am
mm
Dir  Spd
km/h
Gust
km/h
Spd
kts
Gust
kts
22/11:30pm 11.0 9.2 7.3 78 1.8 NE 6 11 3 6 - - 0.0
22/11:00pm 11.0 9.0 7.1 77 1.9 NE 7 11 4 6 - - 0.0
22/10:30pm 11.4 9.4 6.9 74 2.2 NE 7 13 4 7 - - 0.0
22/10:00pm 11.3 9.4 6.8 74 2.2 NE 6 9 3 5 - - 0.0
22/09:30pm 11.2 9.7 6.7 74 2.2 NE 4 9 2 5 - - 0.0
22/09:00pm 10.8 8.9 6.6 75 2.0 ENE 6 9 3 5 - - 0.0
22/08:30pm 10.1 8.3 7.0 81 1.5 ENE 6 9 3 5 - - 0.0
22/08:00pm 9.4 7.7 6.1 80 1.5 ESE 4 6 2 3 - - 0.0
22/07:30pm 9.5 7.8 5.9 78 1.7 E 4 7 2 4 - - 0.0
22/07:00pm 9.7 7.9 5.5 75 1.9 E 4 6 2 3 - - 0.0
22/06:30pm 10.5 8.3 5.5 71 2.3 ESE 6 7 3 4 - - 0.0
22/06:00pm 11.3 9.1 5.2 66 2.8 ESE 6 9 3 5 - - 0.0
22/05:30pm 12.4 9.8 4.4 58 3.7 E 7 9 4 5 - - 0.0
22/05:00pm 13.9 11.0 4.8 54 4.3 E 9 17 5 9 - - 0.0
22/04:30pm 15.0 12.3 5.5 53 4.6 ENE 9 17 5 9 - - 0.0
22/04:00pm 16.0 13.4 6.2 52 4.8 E 9 15 5 8 - - 0.0
22/03:30pm 16.8 14.4 6.9 52 5.0 ESE 9 17 5 9 - - 0.0
22/03:00pm 17.3 14.8 6.5 49 5.4 ENE 9 15 5 8 - - 0.0
22/02:30pm 17.9 15.2 3.8 39 6.7 SSE 7 17 4 9 - - 0.0
22/02:00pm 18.2 15.7 3.7 38 6.9 ESE 6 11 3 6 - - 0.0
22/01:30pm 18.0 16.1 3.1 37 7.0 ENE 2 7 1 4 - - 0.0
22/01:00pm 17.4 15.6 3.3 39 6.6 SSE 2 7 1 4 - - 0.0
22/12:30pm 16.7 14.3 2.3 38 6.6 SSW 4 9 2 5 - - 0.0
22/12:00pm 17.7 15.4 5.0 43 6.2 WNW 6 9 3 5 - - 0.0
22/11:30am 16.3 14.2 3.7 43 5.9 SW 4 7 2 4 - - 0.0
22/11:00am 16.6 14.7 4.9 46 5.6 W 4 7 2 4 - - 0.0
22/10:30am 15.5 13.6 5.1 50 5.0 S 4 9 2 5 - - 0.0
22/10:00am 14.2 12.9 5.8 57 4.1 W 2 4 1 2 - - 0.0
22/09:30am 13.4 12.2 8.0 70 2.7 SSE 4 6 2 3 - - 0.0
22/09:00am 12.0 10.2 7.1 72 2.4 SSE 6 7 3 4 - - 0.0
22/08:30am 10.8 8.9 6.9 77 1.9 S 6 7 3 4 - - 0.0
22/08:00am 9.9 9.4 7.8 87 1.0 CALM 0 4 0 2 - - 0.0
22/07:30am 7.8 7.3 7.8 100 0.0 CALM 0 0 0 0 - - 0.0
22/07:00am 4.8 3.5 4.1 95 0.3 CALM 0 0 0 0 - - 0.0
22/06:30am 4.9 3.6 3.9 93 0.4 CALM 0 0 0 0 - - 0.0
22/06:00am 6.1 4.6 5.2 94 0.4 S 2 2 1 1 - - 0.0
22/05:30am 6.3 5.3 5.4 94 0.4 CALM 0 0 0 0 - - 0.0
22/05:00am 6.8 5.9 6.1 95 0.3 CALM 0 0 0 0 - - 0.0
22/04:30am 5.8 4.6 4.4 91 0.6 CALM 0 0 0 0 - - 0.0
22/04:00am 6.9 5.4 5.1 88 0.8 NW 2 4 1 2 - - 0.0
22/03:30am 8.0 6.8 6.3 89 0.8 WSW 2 4 1 2 - - 0.0
22/03:00am 7.9 6.6 5.9 87 0.9 SSW 2 6 1 3 - - 0.0
22/02:30am 7.5 5.4 5.8 89 0.8 NNW 6 7 3 4 - - 0.0
22/02:00am 7.2 5.7 5.2 87 0.9 NW 2 2 1 1 - - 0.0
22/01:30am 7.5 5.7 5.3 86 1.0 WNW 4 4 2 2 - - 0.0
22/01:00am 7.8 6.6 4.7 81 1.4 CALM 0 0 0 0 - - 0.0
22/12:30am 8.4 6.4 4.6 77 1.7 W 4 4 2 2 - - 0.0
22/12:00am 9.4 7.7 5.8 78 1.7 W 4 6 2 3 - - 0.0
 
Date/Time
EST
Temp
°C
App
Temp
°C
Dew
Point
°C
Rel
Hum
%
Delta-T
°C
Wind Press
QNH
hPa
Press
MSL
hPa
Rain since
9am
mm
Dir  Spd
km/h
Gust
km/h
Spd
kts
Gust
kts
21/11:30pm 8.2 7.4 6.3 88 0.9 CALM 0 0 0 0 - - 0.0
21/11:00pm 7.5 6.4 5.3 86 1.0 CALM 0 0 0 0 - - 0.0
21/10:30pm 7.3 6.1 4.4 82 1.3 CALM 0 0 0 0 - - 0.0
21/10:00pm 7.9 6.7 4.8 81 1.4 CALM 0 0 0 0 - - 0.0
21/09:30pm 8.8 7.8 5.7 81 1.4 CALM 0 0 0 0 - - 0.0
21/09:00pm 9.1 8.2 6.0 81 1.4 CALM 0 2 0 1 - - 0.0

Latest Capital City Observations: Canberra | Sydney | Melbourne | Brisbane | Adelaide | Perth | Hobart | Darwin

Other Formats:

Comma delimited format used in spreadsheet applications
http://www.bom.gov.au/fwo/IDN60901/IDN60901.95774.axf

JavaScript Object Notation format (JSON) in row-major order
http://www.bom.gov.au/fwo/IDN60901/IDN60901.95774.json